createdAt,value
2023-08-28T00:00:32.993Z,17.60
2023-08-28T00:03:00.617Z,16.60
2023-08-28T00:05:31.492Z,16.50
2023-08-28T00:07:58.849Z,17.00
2023-08-28T00:10:26.581Z,17.30
2023-08-28T00:12:53.868Z,17.40
2023-08-28T00:15:21.133Z,16.60
2023-08-28T00:17:48.439Z,16.30
2023-08-28T00:20:17.419Z,16.10
2023-08-28T00:22:44.634Z,16.20
2023-08-28T00:25:11.927Z,16.10
2023-08-28T00:27:39.155Z,16.10
2023-08-28T00:30:08.117Z,16.10
2023-08-28T00:32:35.531Z,15.90
2023-08-28T00:35:02.819Z,16.20
2023-08-28T00:37:30.033Z,16.30
2023-08-28T00:39:57.240Z,17.00
2023-08-28T00:42:24.725Z,17.20
2023-08-28T00:44:51.941Z,16.60
2023-08-28T00:47:19.618Z,17.00
2023-08-28T00:49:46.841Z,17.30
2023-08-28T00:52:14.752Z,16.80
2023-08-28T00:54:42.312Z,17.20
2023-08-28T00:57:10.772Z,17.40
2023-08-28T00:59:38.256Z,17.40
2023-08-28T01:02:05.531Z,17.40
2023-08-28T01:04:32.778Z,17.60
2023-08-28T01:07:15.946Z,17.80
2023-08-28T01:10:13.294Z,17.70
2023-08-28T01:13:06.110Z,17.90
2023-08-28T01:15:34.597Z,18.00
2023-08-28T01:18:04.297Z,17.90
2023-08-28T01:20:33.043Z,17.80
2023-08-28T01:23:18.330Z,17.80
2023-08-28T01:25:46.078Z,17.90
2023-08-28T01:28:13.305Z,17.60
2023-08-28T01:33:52.309Z,16.90
2023-08-28T01:36:50.900Z,16.40
2023-08-28T01:39:23.682Z,16.60
2023-08-28T01:41:54.032Z,16.60
2023-08-28T01:44:23.031Z,16.40
2023-08-28T01:46:50.677Z,16.30
2023-08-28T01:49:17.898Z,16.30
2023-08-28T01:51:45.128Z,16.60
2023-08-28T01:54:12.438Z,17.40
2023-08-28T01:56:39.673Z,17.30
2023-08-28T01:59:06.921Z,17.30
2023-08-28T02:01:34.113Z,17.40
2023-08-28T02:04:01.577Z,17.30
2023-08-28T02:06:28.792Z,17.30
2023-08-28T02:08:56.053Z,17.10
2023-08-28T02:11:23.873Z,17.20
2023-08-28T02:13:51.220Z,17.60
2023-08-28T02:16:18.647Z,17.50
2023-08-28T02:18:45.937Z,17.40
2023-08-28T02:21:13.118Z,17.40
2023-08-28T02:23:40.340Z,17.40
2023-08-28T02:26:07.547Z,17.40
2023-08-28T02:28:35.015Z,17.40
2023-08-28T02:31:04.609Z,17.50
2023-08-28T02:33:31.905Z,17.40
2023-08-28T02:36:02.421Z,17.30
2023-08-28T02:38:29.631Z,17.40
2023-08-28T02:41:07.588Z,17.30
2023-08-28T02:43:35.205Z,17.30
2023-08-28T02:46:03.913Z,17.20
2023-08-28T02:48:31.231Z,17.20
2023-08-28T02:50:58.462Z,17.30
2023-08-28T02:53:25.734Z,17.20
2023-08-28T02:56:18.257Z,17.20
2023-08-28T02:58:45.460Z,17.40
2023-08-28T03:01:12.680Z,17.60
2023-08-28T03:03:39.998Z,17.10
2023-08-28T03:06:07.292Z,17.30
2023-08-28T03:08:34.501Z,17.20
2023-08-28T03:11:01.732Z,17.10
2023-08-28T03:13:28.935Z,16.90
2023-08-28T03:15:56.416Z,17.00
2023-08-28T03:18:23.779Z,17.20
2023-08-28T03:20:50.969Z,17.00
2023-08-28T03:23:19.486Z,17.10
2023-08-28T03:25:46.728Z,17.10
2023-08-28T03:28:13.962Z,17.20
2023-08-28T03:30:41.170Z,17.10
2023-08-28T03:33:09.180Z,16.90
2023-08-28T03:35:36.506Z,16.90
2023-08-28T03:38:03.844Z,16.90
2023-08-28T03:40:31.067Z,17.00
2023-08-28T03:42:58.316Z,17.20
2023-08-28T03:45:25.563Z,17.30
2023-08-28T03:47:52.856Z,17.30
2023-08-28T03:50:20.091Z,16.90
2023-08-28T03:52:47.320Z,16.90
2023-08-28T03:55:14.601Z,17.20
2023-08-28T03:57:41.845Z,17.20
2023-08-28T04:00:14.007Z,17.10
2023-08-28T04:02:42.081Z,17.10
2023-08-28T04:05:09.510Z,17.00
2023-08-28T04:07:36.783Z,17.00
2023-08-28T04:10:04.551Z,16.70
2023-08-28T04:12:32.753Z,16.70
2023-08-28T04:15:00.064Z,16.90
2023-08-28T04:17:27.470Z,16.90
2023-08-28T04:19:56.711Z,16.90
2023-08-28T04:22:24.620Z,16.50
2023-08-28T04:24:52.750Z,16.60
2023-08-28T04:27:20.175Z,16.60
2023-08-28T04:29:47.397Z,16.70
2023-08-28T04:32:14.817Z,16.50
2023-08-28T04:34:42.012Z,16.70
2023-08-28T04:37:09.221Z,16.80
2023-08-28T04:39:36.551Z,16.80
2023-08-28T04:42:03.797Z,16.80
2023-08-28T04:44:31.000Z,16.80
2023-08-28T04:46:59.795Z,16.80
2023-08-28T04:49:28.086Z,16.90
2023-08-28T04:51:56.673Z,16.90
2023-08-28T04:54:23.861Z,16.90
2023-08-28T04:56:51.148Z,17.00
2023-08-28T04:59:18.343Z,17.30
2023-08-28T05:01:45.615Z,17.40
2023-08-28T05:04:12.829Z,17.30
2023-08-28T05:06:40.034Z,17.30
2023-08-28T05:09:07.850Z,17.50
2023-08-28T05:11:35.075Z,17.60
2023-08-28T05:14:02.306Z,17.70
2023-08-28T05:16:29.593Z,17.60
2023-08-28T05:18:56.877Z,17.50
2023-08-28T05:21:24.081Z,17.60
2023-08-28T05:23:51.272Z,17.40
2023-08-28T05:26:18.485Z,17.70
2023-08-28T05:28:46.318Z,17.70
2023-08-28T05:31:13.656Z,17.90
2023-08-28T05:33:40.889Z,17.90
2023-08-28T05:36:08.135Z,17.80
2023-08-28T05:38:36.008Z,17.60
2023-08-28T05:41:04.506Z,17.80
2023-08-28T05:43:31.720Z,18.00
2023-08-28T05:45:58.909Z,18.00
2023-08-28T05:48:26.110Z,17.90
2023-08-28T05:50:53.325Z,17.90
2023-08-28T05:53:20.510Z,17.80
2023-08-28T05:55:48.270Z,17.90
2023-08-28T05:58:15.505Z,17.60
2023-08-28T06:00:43.748Z,17.60
2023-08-28T06:03:11.178Z,17.60
2023-08-28T06:05:39.327Z,17.80
2023-08-28T06:08:06.809Z,17.60
2023-08-28T06:10:35.101Z,17.60
2023-08-28T06:13:02.478Z,17.50
2023-08-28T06:15:29.955Z,17.50
2023-08-28T06:17:57.264Z,17.50
2023-08-28T06:20:24.498Z,17.40
2023-08-28T06:22:51.715Z,17.40
2023-08-28T06:25:19.184Z,17.40
2023-08-28T06:27:46.419Z,17.50
2023-08-28T06:30:13.927Z,17.50
2023-08-28T06:32:41.237Z,17.20
2023-08-28T06:35:08.961Z,17.20
2023-08-28T06:37:36.164Z,17.10
2023-08-28T06:40:04.873Z,17.30
2023-08-28T06:42:32.106Z,17.20
2023-08-28T06:45:01.369Z,17.10
2023-08-28T06:47:29.087Z,16.90
2023-08-28T06:49:57.291Z,16.90
2023-08-28T06:52:24.537Z,17.10
2023-08-28T06:54:52.577Z,17.20
2023-08-28T06:57:20.401Z,17.30
2023-08-28T06:59:47.764Z,17.10
2023-08-28T07:02:15.036Z,17.40
2023-08-28T07:04:42.358Z,17.20
2023-08-28T07:17:43.533Z,17.70
2023-08-28T07:20:11.092Z,17.50
2023-08-28T07:22:38.480Z,17.60
2023-08-28T07:25:06.133Z,17.70
2023-08-28T07:27:33.393Z,17.90
2023-08-28T07:30:02.456Z,17.60
2023-08-28T07:32:32.589Z,17.40
2023-08-28T07:35:02.504Z,17.50
2023-08-28T07:37:30.362Z,17.50
2023-08-28T07:39:57.579Z,17.30
2023-08-28T07:42:25.711Z,17.40
2023-08-28T07:44:53.430Z,17.60
2023-08-28T07:47:21.228Z,17.70
2023-08-28T07:49:48.669Z,17.40
2023-08-28T07:52:15.881Z,17.40
2023-08-28T07:54:43.115Z,17.30
2023-08-28T07:57:10.347Z,17.40
2023-08-28T07:59:37.612Z,17.40
2023-08-28T08:02:05.744Z,17.50
2023-08-28T08:04:35.873Z,17.70
2023-08-28T08:07:03.112Z,17.60
2023-08-28T08:09:30.330Z,17.70
2023-08-28T08:11:57.818Z,17.80
2023-08-28T08:14:25.059Z,17.70
2023-08-28T08:16:52.365Z,17.70
2023-08-28T08:19:19.583Z,17.90
2023-08-28T08:21:46.832Z,17.70
2023-08-28T08:24:14.085Z,17.60
2023-08-28T08:26:41.295Z,17.90
2023-08-28T08:29:09.026Z,17.80
2023-08-28T08:31:36.325Z,17.80
2023-08-28T08:34:03.980Z,17.50
2023-08-28T08:36:31.237Z,17.70
2023-08-28T08:38:59.740Z,17.70
2023-08-28T08:41:27.051Z,17.70
2023-08-28T08:43:54.285Z,17.70
2023-08-28T08:46:21.699Z,17.60
2023-08-28T08:48:51.431Z,17.50
2023-08-28T08:51:21.294Z,17.60
2023-08-28T08:54:05.227Z,17.60
2023-08-28T08:56:33.899Z,17.70
2023-08-28T08:59:01.725Z,17.80
2023-08-28T09:01:30.418Z,17.90
2023-08-28T09:04:03.379Z,17.90
2023-08-28T09:06:31.024Z,17.80
2023-08-28T09:09:00.488Z,17.90
2023-08-28T09:11:29.434Z,18.10
2023-08-28T09:13:56.691Z,18.10
2023-08-28T09:16:24.769Z,17.90
2023-08-28T09:18:52.044Z,17.90
2023-08-28T09:21:19.460Z,17.90
2023-08-28T09:23:50.659Z,17.90
2023-08-28T09:26:22.948Z,17.90
2023-08-28T09:29:04.903Z,18.30
2023-08-28T09:31:36.896Z,18.00
2023-08-28T09:34:08.277Z,17.90
2023-08-28T09:36:40.451Z,18.00
2023-08-28T09:39:09.563Z,18.20
2023-08-28T09:41:37.533Z,18.20
2023-08-28T09:44:06.040Z,18.40
2023-08-28T09:46:33.611Z,18.20
2023-08-28T09:49:01.082Z,18.50
2023-08-28T09:52:01.329Z,18.30
2023-08-28T09:54:28.654Z,18.40
2023-08-28T09:56:56.037Z,18.30
2023-08-28T09:59:23.286Z,18.30
2023-08-28T10:01:51.222Z,18.50
2023-08-28T10:04:21.745Z,18.50
2023-08-28T10:06:54.285Z,18.20
2023-08-28T10:09:23.497Z,18.50
2023-08-28T10:11:51.975Z,18.30
2023-08-28T10:14:20.744Z,18.30
2023-08-28T10:17:07.014Z,18.30
2023-08-28T10:19:40.199Z,18.30
2023-08-28T10:22:09.695Z,18.40
2023-08-28T10:24:39.444Z,18.40
2023-08-28T10:27:08.508Z,18.50
2023-08-28T10:29:36.202Z,18.60
2023-08-28T10:32:05.693Z,18.90
2023-08-28T10:34:34.317Z,19.00
2023-08-28T10:37:13.553Z,18.90
2023-08-28T10:39:49.964Z,19.10
2023-08-28T10:42:19.675Z,18.50
2023-08-28T10:44:48.884Z,18.40
2023-08-28T10:47:19.626Z,18.30
2023-08-28T10:49:47.053Z,18.40
2023-08-28T10:52:14.561Z,18.30
2023-08-28T10:54:45.692Z,18.50
2023-08-28T10:57:23.582Z,18.80
2023-08-28T10:59:51.010Z,18.30
2023-08-28T11:02:20.373Z,18.60
2023-08-28T11:04:48.153Z,18.40
2023-08-28T11:07:28.888Z,18.40
2023-08-28T11:10:19.245Z,18.40
2023-08-28T11:12:57.723Z,18.50
2023-08-28T11:15:32.947Z,18.50
2023-08-28T11:18:21.861Z,18.50
2023-08-28T11:20:53.374Z,18.70
2023-08-28T11:23:43.638Z,18.30
2023-08-28T11:26:19.687Z,18.50
2023-08-28T11:28:49.408Z,18.50
2023-08-28T11:31:17.331Z,18.40
2023-08-28T11:33:46.248Z,18.60
2023-08-28T11:36:16.194Z,18.30
2023-08-28T11:38:43.620Z,18.20
2023-08-28T11:41:11.505Z,18.00
2023-08-28T11:43:43.424Z,18.00
2023-08-28T11:46:13.052Z,18.30
2023-08-28T11:48:48.928Z,18.40
2023-08-28T11:51:16.203Z,18.40
2023-08-28T11:53:44.519Z,18.10
2023-08-28T11:56:14.013Z,18.60
2023-08-28T11:58:42.423Z,18.60
2023-08-28T12:01:11.891Z,18.50
2023-08-28T12:03:40.960Z,18.40
2023-08-28T12:06:10.007Z,18.60
2023-08-28T12:08:38.411Z,18.10
2023-08-28T12:11:15.720Z,18.30
2023-08-28T12:13:42.938Z,18.10
2023-08-28T12:16:18.708Z,18.50
2023-08-28T12:18:51.252Z,18.60
2023-08-28T12:21:20.226Z,18.30
2023-08-28T12:23:50.938Z,18.30
2023-08-28T12:26:19.351Z,18.40
2023-08-28T12:28:47.562Z,18.30
2023-08-28T12:31:15.949Z,18.30
2023-08-28T12:33:46.032Z,18.30
2023-08-28T12:36:13.541Z,18.20
2023-08-28T12:38:50.985Z,18.20
2023-08-28T12:41:18.986Z,18.30
2023-08-28T12:43:49.758Z,18.20
2023-08-28T12:46:17.053Z,18.20
2023-08-28T12:48:44.833Z,18.00
2023-08-28T12:51:12.114Z,17.90
2023-08-28T12:53:39.357Z,18.30
2023-08-28T12:56:06.756Z,18.30
2023-08-28T12:58:34.061Z,18.40
2023-08-28T13:01:01.358Z,18.00
2023-08-28T13:03:29.514Z,18.30
2023-08-28T13:05:56.813Z,18.10
2023-08-28T13:08:24.103Z,18.40
2023-08-28T13:10:51.418Z,18.00
2023-08-28T13:13:19.378Z,18.20
2023-08-28T13:15:48.515Z,18.20
2023-08-28T13:18:15.908Z,18.10
2023-08-28T13:20:43.156Z,18.30
2023-08-28T13:23:10.379Z,17.90
2023-08-28T13:25:37.591Z,18.30
2023-08-28T13:28:05.094Z,17.90
2023-08-28T13:30:32.396Z,17.70
2023-08-28T13:33:03.220Z,17.70
2023-08-28T13:35:31.826Z,17.50
2023-08-28T13:37:59.143Z,17.40
2023-08-28T13:40:27.470Z,16.90
2023-08-28T13:42:55.036Z,17.10
2023-08-28T13:45:22.248Z,17.30
2023-08-28T13:47:50.288Z,17.20
2023-08-28T13:50:17.631Z,17.30
2023-08-28T13:52:46.356Z,17.40
2023-08-28T13:55:13.624Z,17.40
2023-08-28T13:57:40.885Z,17.50
2023-08-28T14:00:15.215Z,17.80
2023-08-28T14:02:43.429Z,17.50
2023-08-28T14:05:14.732Z,17.30
2023-08-28T14:07:42.483Z,17.40
2023-08-28T14:10:10.520Z,17.40
2023-08-28T14:12:37.985Z,17.40
2023-08-28T14:15:05.950Z,17.60
2023-08-28T14:17:33.371Z,17.20
2023-08-28T14:20:00.749Z,17.20
2023-08-28T14:22:28.424Z,17.20
2023-08-28T14:24:55.923Z,17.50
2023-08-28T14:27:23.502Z,17.50
2023-08-28T14:29:50.723Z,17.30
2023-08-28T14:32:18.033Z,17.30
2023-08-28T14:34:45.260Z,17.30
2023-08-28T14:37:12.532Z,17.10
2023-08-28T14:39:39.766Z,17.10
2023-08-28T14:42:07.221Z,16.90
2023-08-28T14:44:34.443Z,17.10
2023-08-28T14:47:01.711Z,17.20
2023-08-28T14:49:29.011Z,17.30
2023-08-28T14:51:56.217Z,17.30
2023-08-28T14:54:23.426Z,17.10
2023-08-28T14:56:51.378Z,17.40
2023-08-28T14:59:18.645Z,17.50
2023-08-28T15:01:45.994Z,17.30
2023-08-28T15:04:13.264Z,17.60
2023-08-28T15:06:40.464Z,17.30
2023-08-28T15:09:07.772Z,17.80
2023-08-28T15:11:35.015Z,17.60
2023-08-28T15:14:02.232Z,18.00
2023-08-28T15:16:29.446Z,17.70
2023-08-28T15:18:56.658Z,17.70
2023-08-28T15:21:23.869Z,17.50
2023-08-28T15:23:51.086Z,17.50
2023-08-28T15:26:18.323Z,17.60
2023-08-28T15:28:47.120Z,17.80
2023-08-28T15:31:14.667Z,17.50
2023-08-28T15:33:42.686Z,17.40
2023-08-28T15:36:11.681Z,17.40
2023-08-28T15:38:40.504Z,17.40
2023-08-28T15:41:07.838Z,17.50
2023-08-28T15:43:35.148Z,17.20
2023-08-28T15:46:05.524Z,17.20
2023-08-28T15:48:32.729Z,17.40
2023-08-28T15:51:04.493Z,17.50
2023-08-28T15:53:32.629Z,17.40
2023-08-28T15:56:00.107Z,17.60
2023-08-28T15:58:28.222Z,17.70
2023-08-28T16:01:00.386Z,17.70
2023-08-28T16:03:31.644Z,17.80
2023-08-28T16:06:02.374Z,17.80
2023-08-28T16:08:29.617Z,17.80
2023-08-28T16:10:57.093Z,17.80
2023-08-28T16:13:24.328Z,18.00
2023-08-28T16:15:51.644Z,17.80
2023-08-28T16:18:18.932Z,17.80
2023-08-28T16:20:47.165Z,17.80
2023-08-28T16:23:14.888Z,17.70
2023-08-28T16:25:42.858Z,17.80
2023-08-28T16:28:13.663Z,17.60
2023-08-28T16:30:41.258Z,17.40
2023-08-28T16:33:08.824Z,17.40
2023-08-28T16:35:37.893Z,17.70
2023-08-28T16:38:05.214Z,17.20
2023-08-28T16:40:33.201Z,17.40
2023-08-28T16:43:00.619Z,17.50
2023-08-28T16:45:27.847Z,17.40
2023-08-28T16:47:55.156Z,17.50
2023-08-28T16:50:22.403Z,17.70
2023-08-28T16:52:49.614Z,17.50
2023-08-28T16:55:16.863Z,17.60
2023-08-28T16:57:44.075Z,17.60
2023-08-28T17:00:14.457Z,17.50
2023-08-28T17:02:42.193Z,17.70
2023-08-28T17:05:09.580Z,17.70
2023-08-28T17:07:36.795Z,17.70
2023-08-28T17:10:04.942Z,17.60
2023-08-28T17:12:33.607Z,17.50
2023-08-28T17:15:00.906Z,17.70
2023-08-28T17:17:28.207Z,17.70
2023-08-28T17:19:55.491Z,17.50
2023-08-28T17:22:22.861Z,17.30
2023-08-28T17:24:52.466Z,17.40
2023-08-28T17:27:19.709Z,17.60
2023-08-28T17:29:47.675Z,17.80
2023-08-28T17:32:15.226Z,18.00
2023-08-28T17:34:43.603Z,17.70
2023-08-28T17:37:10.893Z,18.00
2023-08-28T17:39:38.972Z,17.80
2023-08-28T17:42:09.862Z,17.90
2023-08-28T17:44:37.248Z,17.80
2023-08-28T17:47:08.615Z,17.70
2023-08-28T17:49:36.069Z,17.60
2023-08-28T17:52:03.312Z,17.60
2023-08-28T17:54:30.625Z,17.60
2023-08-28T17:56:58.300Z,17.70
2023-08-28T17:59:25.554Z,17.90
2023-08-28T18:01:52.780Z,17.90
2023-08-28T18:04:20.221Z,17.90
2023-08-28T18:06:47.638Z,18.10
2023-08-28T18:09:15.565Z,17.90
2023-08-28T18:11:47.601Z,17.80
2023-08-28T18:14:15.073Z,17.80
2023-08-28T18:16:44.079Z,17.80
2023-08-28T18:19:11.312Z,18.00
2023-08-28T18:21:41.536Z,17.90
2023-08-28T18:24:09.149Z,17.80
2023-08-28T18:26:36.457Z,17.90
2023-08-28T18:29:03.882Z,17.80
2023-08-28T18:31:31.131Z,17.80
2023-08-28T18:33:58.767Z,18.20
2023-08-28T18:36:29.691Z,18.10
2023-08-28T18:38:56.984Z,18.30
2023-08-28T18:41:24.272Z,18.10
2023-08-28T18:43:51.605Z,18.10
2023-08-28T18:46:18.912Z,17.80
2023-08-28T18:48:46.130Z,17.60
2023-08-28T18:51:13.463Z,17.10
2023-08-28T18:53:42.076Z,17.30
2023-08-28T18:56:09.324Z,17.00
2023-08-28T18:58:36.580Z,17.20
2023-08-28T19:01:04.731Z,17.30
2023-08-28T19:03:32.100Z,17.20
2023-08-28T19:05:59.423Z,17.30
2023-08-28T19:08:26.955Z,17.10
2023-08-28T19:10:54.249Z,17.20
2023-08-28T19:13:21.513Z,17.40
2023-08-28T19:15:49.478Z,17.20
2023-08-28T19:18:21.227Z,17.40
2023-08-28T19:21:00.185Z,17.40
2023-08-28T19:23:29.626Z,16.80
2023-08-28T19:25:56.928Z,16.90
2023-08-28T19:28:24.409Z,16.90
2023-08-28T19:30:51.972Z,16.80
2023-08-28T19:33:20.950Z,17.00
2023-08-28T19:35:49.888Z,17.10
2023-08-28T19:38:17.906Z,17.30
2023-08-28T19:40:45.131Z,17.30
2023-08-28T19:43:12.360Z,17.20
2023-08-28T19:45:39.585Z,17.10
2023-08-28T19:48:07.584Z,16.60
2023-08-28T19:50:35.170Z,16.10
2023-08-28T19:53:05.053Z,15.50
2023-08-28T19:55:35.701Z,15.10
2023-08-28T19:58:04.114Z,15.10
2023-08-28T20:00:31.735Z,15.10
2023-08-28T20:02:59.869Z,14.90
2023-08-28T20:05:27.179Z,15.00
2023-08-28T20:07:54.401Z,15.00
2023-08-28T20:10:21.661Z,15.00
2023-08-28T20:12:48.897Z,14.90
2023-08-28T20:15:17.039Z,15.00
2023-08-28T20:17:47.538Z,15.00
2023-08-28T20:20:14.760Z,15.00
2023-08-28T20:22:42.888Z,14.60
2023-08-28T20:25:10.583Z,14.60
2023-08-28T20:27:38.992Z,14.70
2023-08-28T20:30:10.458Z,14.80
2023-08-28T20:32:38.193Z,14.90
2023-08-28T20:35:06.352Z,14.90
2023-08-28T20:37:34.450Z,15.10
2023-08-28T20:40:01.676Z,15.20
2023-08-28T20:42:28.903Z,15.40
2023-08-28T20:44:58.811Z,15.80
2023-08-28T20:47:32.032Z,15.90
2023-08-28T20:49:59.287Z,16.40
2023-08-28T20:52:26.484Z,16.70
2023-08-28T20:54:53.722Z,17.00
2023-08-28T20:57:21.232Z,17.00
2023-08-28T20:59:48.441Z,17.00
2023-08-28T21:02:15.750Z,16.90
2023-08-28T21:04:42.962Z,17.10
2023-08-28T21:07:10.834Z,17.00
2023-08-28T21:09:38.615Z,17.10
2023-08-28T21:12:06.240Z,17.20
2023-08-28T21:14:33.489Z,17.30
2023-08-28T21:17:01.012Z,17.40
2023-08-28T21:19:29.103Z,17.30
2023-08-28T21:21:56.877Z,16.50
2023-08-28T21:24:24.122Z,16.80
2023-08-28T21:26:51.367Z,16.70
2023-08-28T21:29:18.561Z,16.90
2023-08-28T21:31:47.707Z,17.10
2023-08-28T21:34:16.572Z,17.00
2023-08-28T21:36:43.824Z,17.00
2023-08-28T21:39:11.037Z,17.20
2023-08-28T21:41:38.240Z,16.70
2023-08-28T21:44:09.194Z,16.50
2023-08-28T21:46:37.176Z,17.00
2023-08-28T21:49:04.476Z,16.80
2023-08-28T21:51:33.557Z,16.50
2023-08-28T21:54:00.898Z,16.50
2023-08-28T21:56:28.166Z,15.90
2023-08-28T21:58:55.349Z,15.80
2023-08-28T22:01:22.745Z,15.50
2023-08-28T22:03:49.995Z,15.70
2023-08-28T22:06:17.190Z,15.90
2023-08-28T22:08:44.434Z,16.10
2023-08-28T22:11:11.955Z,16.30
2023-08-28T22:13:39.157Z,16.00
2023-08-28T22:16:06.555Z,15.80
2023-08-28T22:18:34.633Z,16.10
2023-08-28T22:21:04.301Z,16.50
2023-08-28T22:23:31.979Z,16.20
2023-08-28T22:25:59.816Z,16.40
2023-08-28T22:28:27.042Z,16.30
2023-08-28T22:30:54.301Z,16.30
2023-08-28T22:33:21.581Z,16.10
2023-08-28T22:35:48.835Z,16.00
2023-08-28T22:38:16.069Z,15.60
2023-08-28T22:40:43.283Z,16.00
2023-08-28T22:43:10.511Z,16.10
2023-08-28T22:45:37.727Z,16.20
2023-08-28T22:48:05.432Z,16.50
2023-08-28T22:50:34.273Z,16.70
2023-08-28T22:53:01.484Z,16.70
2023-08-28T22:55:28.666Z,16.30
2023-08-28T22:57:55.872Z,16.40
2023-08-28T23:00:23.285Z,16.50
2023-08-28T23:02:50.651Z,16.20
2023-08-28T23:05:18.001Z,15.80
2023-08-28T23:07:45.212Z,15.60
2023-08-28T23:10:13.794Z,16.10
2023-08-28T23:12:41.048Z,16.20
2023-08-28T23:15:09.146Z,16.20
2023-08-28T23:17:36.483Z,16.50
2023-08-28T23:20:04.437Z,16.80
2023-08-28T23:22:31.864Z,16.20
2023-08-28T23:24:59.224Z,16.40
2023-08-28T23:27:27.283Z,15.80
2023-08-28T23:29:54.502Z,16.40
2023-08-28T23:32:21.806Z,16.80
2023-08-28T23:34:50.265Z,17.00
2023-08-28T23:37:18.607Z,16.90
2023-08-28T23:39:45.823Z,17.10
2023-08-28T23:42:13.044Z,17.20
2023-08-28T23:44:40.420Z,17.00
2023-08-28T23:47:07.671Z,17.00
2023-08-28T23:49:34.886Z,17.00
2023-08-28T23:52:02.107Z,16.70
2023-08-28T23:54:29.352Z,16.80
2023-08-28T23:56:56.956Z,16.70
2023-08-28T23:59:24.202Z,16.60
